createdAt,value
2022-12-11T00:01:24.722Z,89.00
2022-12-11T00:06:28.258Z,89.00
2022-12-11T00:11:30.355Z,89.10
2022-12-11T00:16:32.520Z,89.40
2022-12-11T00:21:36.748Z,89.50
2022-12-11T00:26:39.209Z,89.60
2022-12-11T00:31:41.477Z,89.60
2022-12-11T00:36:45.069Z,89.50
2022-12-11T00:41:47.126Z,89.40
2022-12-11T00:46:49.249Z,89.30
2022-12-11T00:51:52.803Z,89.40
2022-12-11T00:56:55.984Z,89.40
2022-12-11T01:01:58.174Z,89.40
2022-12-11T01:07:01.749Z,89.70
2022-12-11T01:12:04.194Z,89.70
2022-12-11T01:17:06.346Z,89.70
2022-12-11T01:22:09.892Z,89.70
2022-12-11T01:27:11.976Z,89.70
2022-12-11T01:32:14.049Z,89.70
2022-12-11T01:37:17.532Z,89.80
2022-12-11T01:42:20.989Z,89.80
2022-12-11T01:47:23.114Z,90.30
2022-12-11T01:52:26.705Z,89.70
2022-12-11T01:57:29.498Z,89.90
2022-12-11T02:02:33.208Z,89.60
2022-12-11T02:07:42.799Z,89.50
2022-12-11T02:12:57.199Z,89.30
2022-12-11T02:18:09.064Z,89.30
2022-12-11T02:23:52.881Z,89.20
2022-12-11T02:29:02.748Z,89.60
2022-12-11T02:34:10.427Z,89.60
2022-12-11T02:39:16.055Z,89.60
2022-12-11T02:44:23.592Z,89.60
2022-12-11T02:49:28.188Z,89.60
2022-12-11T02:54:33.170Z,89.70
2022-12-11T02:59:39.695Z,89.60
2022-12-11T03:04:43.405Z,89.80
2022-12-11T03:09:47.705Z,89.80
2022-12-11T03:14:51.513Z,89.90
2022-12-11T03:20:02.288Z,90.00
2022-12-11T03:25:07.969Z,90.10
2022-12-11T03:30:16.187Z,90.30
2022-12-11T03:35:21.459Z,90.30
2022-12-11T03:40:25.458Z,90.20
2022-12-11T03:45:30.536Z,90.20
2022-12-11T03:50:35.166Z,90.20
2022-12-11T03:55:39.731Z,90.00
2022-12-11T04:00:43.269Z,90.00
2022-12-11T04:05:47.716Z,90.00
2022-12-11T04:10:50.686Z,89.80
2022-12-11T04:15:55.333Z,89.50
2022-12-11T04:20:57.543Z,89.70
2022-12-11T04:26:05.017Z,89.80
2022-12-11T04:31:11.898Z,90.00
2022-12-11T04:36:14.681Z,90.00
2022-12-11T04:41:17.884Z,90.00
2022-12-11T04:46:24.330Z,90.00
2022-12-11T04:51:26.864Z,90.20
2022-12-11T04:56:29.014Z,90.10
2022-12-11T05:01:32.514Z,90.10
2022-12-11T05:06:34.616Z,90.20
2022-12-11T05:11:36.849Z,90.20
2022-12-11T05:16:40.333Z,90.30
2022-12-11T05:21:42.415Z,90.40
2022-12-11T05:26:44.470Z,90.40
2022-12-11T05:31:48.004Z,90.30
2022-12-11T05:36:50.133Z,90.30
2022-12-11T05:41:52.166Z,90.40
2022-12-11T05:46:55.814Z,90.40
2022-12-11T05:51:57.988Z,90.50
2022-12-11T05:57:00.054Z,90.50
2022-12-11T06:02:03.712Z,90.50
2022-12-11T06:07:05.885Z,90.40
2022-12-11T06:12:08.083Z,90.40
2022-12-11T06:17:11.645Z,90.40
2022-12-11T06:22:13.742Z,90.50
2022-12-11T06:27:15.881Z,90.50
2022-12-11T06:32:19.446Z,90.50
2022-12-11T06:37:21.558Z,90.50
2022-12-11T06:42:23.649Z,90.40
2022-12-11T06:47:27.483Z,90.40
2022-12-11T06:52:29.680Z,90.50
2022-12-11T06:57:31.725Z,90.50
2022-12-11T07:02:35.275Z,90.50
2022-12-11T07:07:37.458Z,90.50
2022-12-11T07:12:39.603Z,90.50
2022-12-11T07:17:43.178Z,90.60
2022-12-11T07:22:46.780Z,90.50
2022-12-11T07:27:49.572Z,90.50
2022-12-11T07:32:53.120Z,90.50
2022-12-11T07:37:55.287Z,90.50
2022-12-11T07:42:57.434Z,90.50
2022-12-11T07:48:00.978Z,90.50
2022-12-11T07:53:03.084Z,90.50
2022-12-11T07:58:05.178Z,90.50
2022-12-11T08:03:08.689Z,90.30
2022-12-11T08:08:10.799Z,90.40
2022-12-11T08:13:13.039Z,90.50
2022-12-11T08:18:16.553Z,90.60
2022-12-11T08:23:18.950Z,90.60
2022-12-11T08:28:21.125Z,90.60
2022-12-11T08:33:25.700Z,90.60
2022-12-11T08:38:28.052Z,90.60
2022-12-11T08:43:30.092Z,90.60
2022-12-11T08:48:33.901Z,90.70
2022-12-11T08:53:36.060Z,90.60
2022-12-11T08:58:38.238Z,90.60
2022-12-11T09:03:42.461Z,90.60
2022-12-11T09:08:51.956Z,90.60
2022-12-11T09:13:54.835Z,90.60
2022-12-11T09:18:59.460Z,90.60
2022-12-11T09:24:02.278Z,90.60
2022-12-11T09:29:05.471Z,90.60
2022-12-11T09:34:13.676Z,90.60
2022-12-11T09:39:17.062Z,90.70
2022-12-11T09:44:30.231Z,90.70
2022-12-11T09:49:39.404Z,90.70
2022-12-11T09:54:48.086Z,90.60
2022-12-11T10:00:14.578Z,90.60
2022-12-11T10:05:27.781Z,90.60
2022-12-11T10:10:41.764Z,90.40
2022-12-11T10:15:51.975Z,90.50
2022-12-11T10:20:55.655Z,90.40
2022-12-11T10:26:04.679Z,90.40
2022-12-11T10:31:16.026Z,90.40
2022-12-11T10:36:24.112Z,90.40
2022-12-11T10:41:36.947Z,90.40
2022-12-11T10:46:39.104Z,90.40
2022-12-11T10:51:42.689Z,90.40
2022-12-11T10:56:48.208Z,90.30
2022-12-11T11:01:50.873Z,90.40
2022-12-11T11:07:04.151Z,90.40
2022-12-11T11:12:19.404Z,90.30
2022-12-11T11:17:21.763Z,90.30
2022-12-11T11:22:25.401Z,90.30
2022-12-11T11:27:35.413Z,90.30
2022-12-11T11:32:40.560Z,90.30
2022-12-11T11:37:53.357Z,90.30
2022-12-11T11:43:05.164Z,90.20
2022-12-11T11:48:22.257Z,90.20
2022-12-11T11:53:32.124Z,90.20
2022-12-11T11:58:41.797Z,90.20
2022-12-11T12:03:45.192Z,90.30
2022-12-11T12:08:56.225Z,90.30
2022-12-11T12:14:22.730Z,90.30
2022-12-11T12:19:43.539Z,90.30
2022-12-11T12:24:55.248Z,90.30
2022-12-11T12:30:03.497Z,90.20
2022-12-11T12:35:16.170Z,90.30
2022-12-11T12:40:28.985Z,90.30
2022-12-11T12:45:37.168Z,90.30
2022-12-11T12:50:43.164Z,90.30
2022-12-11T12:55:48.051Z,90.30
2022-12-11T13:00:50.288Z,90.30
2022-12-11T13:05:59.309Z,90.40
2022-12-11T13:11:06.311Z,90.40
2022-12-11T13:16:23.089Z,90.40
2022-12-11T13:21:29.721Z,90.40
2022-12-11T13:26:34.492Z,90.20
2022-12-11T13:31:38.827Z,90.30
2022-12-11T13:36:46.295Z,90.30
2022-12-11T13:41:53.493Z,90.30
2022-12-11T13:46:58.806Z,90.30
2022-12-11T13:52:01.632Z,90.40
2022-12-11T13:57:17.439Z,90.30
2022-12-11T14:02:24.010Z,90.40
2022-12-11T14:07:30.531Z,90.40
2022-12-11T14:12:34.184Z,90.50
2022-12-11T14:17:36.410Z,90.50
2022-12-11T14:22:38.517Z,90.50
2022-12-11T14:27:49.036Z,90.40
2022-12-11T14:32:52.808Z,90.40
2022-12-11T14:37:55.527Z,90.40
2022-12-11T14:43:03.062Z,90.40
2022-12-11T14:48:12.342Z,90.40
2022-12-11T14:53:19.420Z,90.40
2022-12-11T14:58:25.482Z,90.30
2022-12-11T15:03:33.816Z,90.40
2022-12-11T15:08:36.366Z,90.40
2022-12-11T15:13:51.448Z,90.30
2022-12-11T15:18:56.214Z,90.30
2022-12-11T15:24:00.575Z,90.30
2022-12-11T15:29:06.145Z,90.30
2022-12-11T15:34:22.284Z,90.30
2022-12-11T15:39:24.564Z,90.30
2022-12-11T15:44:28.138Z,90.30
2022-12-11T15:49:30.215Z,90.30
2022-12-11T15:54:32.310Z,90.40
2022-12-11T15:59:35.903Z,90.40
2022-12-11T16:04:38.006Z,90.40
2022-12-11T16:09:40.170Z,90.50
2022-12-11T16:14:44.428Z,90.40
2022-12-11T16:19:46.666Z,90.40
2022-12-11T16:24:53.027Z,90.30
2022-12-11T16:29:56.630Z,90.40
2022-12-11T16:34:59.396Z,90.50
2022-12-11T16:40:01.540Z,90.50
2022-12-11T16:45:08.484Z,90.90
2022-12-11T16:50:12.331Z,90.50
2022-12-11T16:55:15.274Z,90.50
2022-12-11T17:00:19.278Z,90.50
2022-12-11T17:05:21.397Z,90.50
2022-12-11T17:10:23.539Z,90.50
2022-12-11T17:15:27.026Z,90.60
2022-12-11T17:20:29.131Z,90.60
2022-12-11T17:25:31.208Z,90.60
2022-12-11T17:30:35.128Z,90.60
2022-12-11T17:35:37.389Z,90.50
2022-12-11T17:40:40.961Z,90.60
2022-12-11T17:45:47.082Z,90.50
2022-12-11T17:50:51.185Z,90.60
2022-12-11T17:55:53.416Z,90.60
2022-12-11T18:00:58.224Z,90.60
2022-12-11T18:06:05.643Z,90.60
2022-12-11T18:11:10.040Z,90.60
2022-12-11T18:16:15.904Z,90.60
2022-12-11T18:21:20.620Z,90.60
2022-12-11T18:26:23.135Z,90.60
2022-12-11T18:31:26.808Z,90.60
2022-12-11T18:36:29.502Z,90.50
2022-12-11T18:41:31.695Z,90.50
2022-12-11T18:46:35.235Z,90.50
2022-12-11T18:51:37.377Z,90.50
2022-12-11T18:56:39.525Z,90.50
2022-12-11T19:01:43.122Z,90.50
2022-12-11T19:06:45.247Z,90.50
2022-12-11T19:11:47.503Z,90.40
2022-12-11T19:16:51.295Z,90.40
2022-12-11T19:21:53.397Z,90.50
2022-12-11T19:26:55.529Z,90.50
2022-12-11T19:32:01.755Z,90.40
2022-12-11T19:37:03.919Z,90.50
2022-12-11T19:42:06.551Z,90.50
2022-12-11T19:47:10.153Z,90.50
2022-12-11T19:52:12.310Z,90.50
2022-12-11T19:57:14.478Z,90.50
2022-12-11T20:02:18.062Z,90.50
2022-12-11T20:07:20.210Z,90.50
2022-12-11T20:12:22.337Z,90.50
2022-12-11T20:17:25.932Z,90.50
2022-12-11T20:22:28.179Z,90.50
2022-12-11T20:27:31.149Z,90.50
2022-12-11T20:32:35.194Z,90.50
2022-12-11T20:37:37.430Z,90.40
2022-12-11T20:42:40.117Z,90.50
2022-12-11T20:47:44.220Z,90.50
2022-12-11T20:52:46.326Z,90.50
2022-12-11T20:57:48.434Z,90.50
2022-12-11T21:02:52.265Z,90.50
2022-12-11T21:07:54.995Z,90.50
2022-12-11T21:12:57.170Z,90.50
2022-12-11T21:18:00.823Z,90.50
2022-12-11T21:23:03.067Z,90.50
2022-12-11T21:28:05.917Z,90.50
2022-12-11T21:33:10.394Z,90.50
2022-12-11T21:38:12.491Z,90.50
2022-12-11T21:43:14.596Z,90.50
2022-12-11T21:48:18.118Z,90.50
2022-12-11T21:53:20.213Z,90.50
2022-12-11T21:58:22.374Z,90.50
2022-12-11T22:03:25.895Z,90.50
2022-12-11T22:08:28.091Z,90.50
2022-12-11T22:13:30.698Z,90.50
2022-12-11T22:18:34.286Z,90.60
2022-12-11T22:23:38.436Z,90.60
2022-12-11T22:28:40.557Z,90.50
2022-12-11T22:33:44.191Z,90.50
2022-12-11T22:38:46.594Z,90.50
2022-12-11T22:43:48.737Z,90.50
2022-12-11T22:48:52.902Z,90.50
2022-12-11T22:53:55.065Z,90.50
2022-12-11T22:58:57.463Z,90.50
2022-12-11T23:04:00.974Z,90.40
2022-12-11T23:09:03.384Z,90.40
2022-12-11T23:14:08.508Z,90.60
2022-12-11T23:19:13.139Z,90.30
2022-12-11T23:24:15.475Z,90.30
2022-12-11T23:29:17.599Z,90.30
2022-12-11T23:34:21.217Z,90.30
2022-12-11T23:39:23.292Z,90.30
2022-12-11T23:44:25.352Z,90.50
2022-12-11T23:49:28.895Z,90.60
2022-12-11T23:54:31.078Z,90.50
2022-12-11T23:59:33.217Z,90.50
